createdAt,value
2018-12-09T00:01:33.422Z,100.00
2018-12-09T00:04:01.718Z,100.00
2018-12-09T00:06:29.979Z,100.00
2018-12-09T00:08:58.249Z,100.00
2018-12-09T00:11:26.599Z,100.00
2018-12-09T00:13:54.962Z,100.00
2018-12-09T00:16:23.299Z,100.00
2018-12-09T00:18:51.576Z,100.00
2018-12-09T00:21:19.816Z,100.00
2018-12-09T00:23:48.135Z,100.00
2018-12-09T00:26:16.388Z,100.00
2018-12-09T00:28:44.684Z,100.00
2018-12-09T00:31:12.992Z,100.00
2018-12-09T00:33:41.331Z,100.00
2018-12-09T00:36:09.594Z,100.00
2018-12-09T00:38:37.849Z,100.00
2018-12-09T00:41:06.146Z,100.00
2018-12-09T00:43:34.388Z,100.00
2018-12-09T00:46:02.652Z,100.00
2018-12-09T00:48:31.181Z,100.00
2018-12-09T00:50:59.436Z,100.00
2018-12-09T00:53:27.692Z,100.00
2018-12-09T00:55:56.015Z,100.00
2018-12-09T00:58:24.260Z,100.00
2018-12-09T01:00:52.531Z,100.00
2018-12-09T01:03:20.861Z,100.00
2018-12-09T01:05:49.124Z,100.00
2018-12-09T01:08:17.440Z,100.00
2018-12-09T01:10:45.744Z,100.00
2018-12-09T01:13:14.056Z,100.00
2018-12-09T01:15:42.298Z,100.00
2018-12-09T01:18:10.545Z,100.00
2018-12-09T01:20:38.852Z,100.00
2018-12-09T01:23:07.126Z,100.00
2018-12-09T01:25:35.433Z,100.00
2018-12-09T01:28:03.684Z,100.00
2018-12-09T01:30:31.937Z,100.00
2018-12-09T01:33:00.184Z,100.00
2018-12-09T01:35:28.429Z,100.00
2018-12-09T01:37:56.695Z,100.00
2018-12-09T01:40:24.937Z,100.00
2018-12-09T01:42:53.280Z,100.00
2018-12-09T01:45:22.046Z,100.00
2018-12-09T01:47:50.287Z,100.00
2018-12-09T01:50:18.535Z,100.00
2018-12-09T01:52:51.319Z,100.00
2018-12-09T01:55:19.559Z,100.00
2018-12-09T01:57:47.809Z,100.00
2018-12-09T02:00:16.382Z,100.00
2018-12-09T02:02:44.699Z,100.00
2018-12-09T02:05:12.966Z,100.00
2018-12-09T02:07:41.508Z,100.00
2018-12-09T02:10:09.878Z,100.00
2018-12-09T02:12:38.212Z,100.00
2018-12-09T02:15:06.677Z,100.00
2018-12-09T02:17:34.989Z,100.00
2018-12-09T02:20:03.348Z,100.00
2018-12-09T02:22:31.605Z,100.00
2018-12-09T02:24:59.857Z,100.00
2018-12-09T02:27:28.112Z,100.00
2018-12-09T02:29:56.657Z,100.00
2018-12-09T02:32:24.911Z,100.00
2018-12-09T02:34:53.408Z,100.00
2018-12-09T02:37:21.648Z,100.00
2018-12-09T02:39:49.901Z,100.00
2018-12-09T02:42:18.376Z,100.00
2018-12-09T02:44:46.620Z,100.00
2018-12-09T02:47:14.864Z,100.00
2018-12-09T02:49:43.116Z,100.00
2018-12-09T02:52:11.668Z,100.00
2018-12-09T02:54:40.031Z,100.00
2018-12-09T02:57:08.296Z,100.00
2018-12-09T02:59:36.551Z,100.00
2018-12-09T03:02:05.021Z,100.00
2018-12-09T03:04:33.393Z,100.00
2018-12-09T03:07:01.656Z,100.00
2018-12-09T03:09:29.903Z,100.00
2018-12-09T03:11:58.246Z,100.00
2018-12-09T03:14:26.900Z,100.00
2018-12-09T03:16:55.373Z,100.00
2018-12-09T03:19:23.631Z,100.00
2018-12-09T03:21:51.872Z,100.00
2018-12-09T03:24:20.132Z,100.00
2018-12-09T03:26:48.435Z,100.00
2018-12-09T03:29:16.676Z,100.00
2018-12-09T03:31:45.152Z,100.00
2018-12-09T03:34:13.480Z,100.00
2018-12-09T03:36:41.722Z,100.00
2018-12-09T03:39:09.976Z,100.00
2018-12-09T03:41:38.274Z,100.00
2018-12-09T03:44:06.739Z,100.00
2018-12-09T03:46:35.081Z,100.00
2018-12-09T03:49:03.789Z,100.00
2018-12-09T03:51:32.187Z,100.00
2018-12-09T03:54:00.517Z,100.00
2018-12-09T03:56:28.749Z,100.00
2018-12-09T03:58:57.105Z,100.00
2018-12-09T04:01:25.548Z,100.00
2018-12-09T04:03:54.121Z,100.00
2018-12-09T04:06:22.361Z,100.00
2018-12-09T04:08:50.613Z,100.00
2018-12-09T04:11:18.863Z,100.00
2018-12-09T04:13:47.113Z,100.00
2018-12-09T04:16:15.458Z,100.00
2018-12-09T04:18:43.721Z,100.00
2018-12-09T04:21:11.965Z,100.00
2018-12-09T04:23:40.220Z,100.00
2018-12-09T04:26:08.466Z,100.00
2018-12-09T04:28:36.829Z,100.00
2018-12-09T04:31:05.068Z,100.00
2018-12-09T04:33:33.304Z,100.00
2018-12-09T04:36:02.165Z,100.00
2018-12-09T04:38:30.415Z,100.00
2018-12-09T04:40:59.685Z,100.00
2018-12-09T04:43:28.039Z,100.00
2018-12-09T04:45:56.286Z,100.00
2018-12-09T04:48:24.705Z,100.00
2018-12-09T04:50:53.054Z,100.00
2018-12-09T04:53:21.292Z,100.00
2018-12-09T04:55:49.556Z,100.00
2018-12-09T04:58:17.797Z,100.00
2018-12-09T05:00:55.279Z,100.00
2018-12-09T05:03:23.665Z,100.00
2018-12-09T05:05:52.023Z,100.00
2018-12-09T05:08:20.385Z,100.00
2018-12-09T05:10:48.781Z,100.00
2018-12-09T05:13:17.041Z,100.00
2018-12-09T05:15:45.301Z,100.00
2018-12-09T05:18:14.544Z,100.00
2018-12-09T05:20:42.805Z,100.00
2018-12-09T05:23:11.104Z,100.00
2018-12-09T05:25:39.360Z,100.00
2018-12-09T05:28:07.623Z,100.00
2018-12-09T05:30:35.960Z,100.00
2018-12-09T05:33:04.709Z,100.00
2018-12-09T05:35:32.968Z,100.00
2018-12-09T05:38:01.228Z,100.00
2018-12-09T05:40:29.468Z,100.00
2018-12-09T05:42:57.716Z,100.00
2018-12-09T05:45:26.386Z,100.00
2018-12-09T05:47:54.644Z,100.00
2018-12-09T05:50:22.949Z,100.00
2018-12-09T05:52:51.205Z,100.00
2018-12-09T05:55:19.609Z,100.00
2018-12-09T05:57:48.157Z,100.00
2018-12-09T06:00:16.474Z,100.00
2018-12-09T06:02:57.704Z,100.00
2018-12-09T06:05:25.964Z,100.00
2018-12-09T06:07:54.222Z,100.00
2018-12-09T06:10:22.620Z,100.00
2018-12-09T06:12:50.882Z,100.00
2018-12-09T06:15:19.241Z,100.00
2018-12-09T06:17:47.588Z,100.00
2018-12-09T06:20:15.828Z,100.00
2018-12-09T06:22:44.189Z,100.00
2018-12-09T06:25:12.435Z,100.00
2018-12-09T06:27:40.698Z,100.00
2018-12-09T06:30:09.306Z,100.00
2018-12-09T06:32:37.620Z,100.00
2018-12-09T06:35:06.070Z,100.00
2018-12-09T06:37:34.421Z,100.00
2018-12-09T06:40:02.888Z,100.00
2018-12-09T06:42:31.160Z,100.00
2018-12-09T06:44:59.504Z,100.00
2018-12-09T06:47:27.751Z,100.00
2018-12-09T06:49:56.010Z,100.00
2018-12-09T06:52:24.248Z,100.00
2018-12-09T06:54:52.489Z,100.00
2018-12-09T06:57:20.855Z,100.00
2018-12-09T06:59:49.201Z,100.00
2018-12-09T07:02:17.456Z,100.00
2018-12-09T07:04:45.816Z,100.00
2018-12-09T07:07:14.126Z,100.00
2018-12-09T07:09:42.372Z,100.00
2018-12-09T07:12:10.732Z,100.00
2018-12-09T07:14:38.989Z,100.00
2018-12-09T07:17:07.312Z,100.00
2018-12-09T07:19:35.551Z,100.00
2018-12-09T07:22:03.792Z,100.00
2018-12-09T07:24:32.057Z,100.00
2018-12-09T07:27:00.379Z,100.00
2018-12-09T07:29:28.672Z,100.00
2018-12-09T07:31:56.933Z,100.00
2018-12-09T07:34:25.176Z,100.00
2018-12-09T07:36:53.477Z,100.00
2018-12-09T07:39:21.865Z,100.00
2018-12-09T07:41:50.144Z,100.00
2018-12-09T07:44:18.397Z,100.00
2018-12-09T07:46:46.679Z,100.00
2018-12-09T07:49:15.082Z,100.00
2018-12-09T07:51:43.378Z,100.00
2018-12-09T07:54:11.727Z,100.00
2018-12-09T07:56:40.042Z,100.00
2018-12-09T07:59:09.378Z,100.00
2018-12-09T08:01:37.625Z,100.00
2018-12-09T08:04:05.960Z,100.00
2018-12-09T08:06:34.242Z,100.00
2018-12-09T08:09:02.646Z,100.00
2018-12-09T08:11:30.964Z,100.00
2018-12-09T08:13:59.358Z,100.00
2018-12-09T08:16:27.661Z,100.00
2018-12-09T08:18:56.047Z,100.00
2018-12-09T08:21:24.451Z,100.00
2018-12-09T08:23:53.000Z,100.00
2018-12-09T08:26:21.268Z,100.00
2018-12-09T08:28:49.512Z,100.00
2018-12-09T08:31:17.821Z,100.00
2018-12-09T08:33:46.055Z,100.00
2018-12-09T08:36:14.324Z,100.00
2018-12-09T08:38:42.560Z,100.00
2018-12-09T08:41:10.820Z,100.00
2018-12-09T08:43:39.086Z,100.00
2018-12-09T08:46:07.334Z,100.00
2018-12-09T08:48:35.595Z,100.00
2018-12-09T08:51:03.844Z,100.00
2018-12-09T08:53:32.096Z,100.00
2018-12-09T08:56:01.020Z,100.00
2018-12-09T08:58:29.293Z,100.00
2018-12-09T09:00:57.619Z,100.00
2018-12-09T09:03:25.905Z,100.00
2018-12-09T09:05:54.157Z,100.00
2018-12-09T09:08:22.587Z,100.00
2018-12-09T09:10:50.845Z,100.00
2018-12-09T09:13:19.107Z,100.00
2018-12-09T09:15:47.385Z,100.00
2018-12-09T09:18:15.711Z,100.00
2018-12-09T09:20:43.972Z,100.00
2018-12-09T09:23:12.238Z,100.00
2018-12-09T09:25:40.481Z,100.00
2018-12-09T09:28:08.821Z,100.00
2018-12-09T09:30:37.120Z,100.00
2018-12-09T09:33:05.383Z,100.00
2018-12-09T09:35:33.644Z,100.00
2018-12-09T09:38:01.954Z,100.00
2018-12-09T09:40:30.197Z,100.00
2018-12-09T09:42:58.448Z,100.00
2018-12-09T09:45:26.736Z,100.00
2018-12-09T09:48:00.365Z,100.00
2018-12-09T09:50:28.705Z,100.00
2018-12-09T09:52:57.004Z,100.00
2018-12-09T09:55:25.253Z,100.00
2018-12-09T09:57:53.547Z,100.00
2018-12-09T10:00:21.934Z,100.00
2018-12-09T10:02:50.201Z,100.00
2018-12-09T10:05:18.479Z,100.00
2018-12-09T10:07:46.749Z,100.00
2018-12-09T10:10:15.008Z,100.00
2018-12-09T10:12:43.268Z,100.00
2018-12-09T10:15:11.582Z,100.00
2018-12-09T10:17:39.955Z,100.00
2018-12-09T10:20:08.335Z,100.00
2018-12-09T10:22:36.628Z,100.00
2018-12-09T10:25:05.493Z,100.00
2018-12-09T10:27:33.785Z,100.00
2018-12-09T10:30:02.061Z,100.00
2018-12-09T10:32:30.372Z,100.00
2018-12-09T10:34:58.621Z,100.00
2018-12-09T10:37:26.989Z,100.00
2018-12-09T10:39:55.269Z,100.00
2018-12-09T10:42:23.511Z,100.00
2018-12-09T10:44:51.753Z,100.00
2018-12-09T10:47:20.096Z,100.00
2018-12-09T10:49:48.398Z,100.00
2018-12-09T10:52:16.746Z,100.00
2018-12-09T10:54:44.993Z,100.00
2018-12-09T10:57:13.240Z,100.00
2018-12-09T10:59:41.504Z,100.00
2018-12-09T11:02:15.200Z,100.00
2018-12-09T11:04:43.635Z,100.00
2018-12-09T11:07:11.957Z,100.00
2018-12-09T11:09:40.220Z,100.00
2018-12-09T11:12:08.481Z,100.00
2018-12-09T11:14:36.773Z,100.00
2018-12-09T11:17:05.025Z,98.27
2018-12-09T11:19:33.266Z,98.17
2018-12-09T11:22:01.508Z,98.87
2018-12-09T11:24:29.771Z,99.31
2018-12-09T11:26:58.056Z,100.00
2018-12-09T11:29:26.329Z,100.00
2018-12-09T11:31:54.600Z,100.00
2018-12-09T11:34:22.853Z,100.00
2018-12-09T11:36:51.908Z,100.00
2018-12-09T11:39:20.162Z,100.00
2018-12-09T11:41:48.528Z,100.00
2018-12-09T11:44:16.809Z,100.00
2018-12-09T11:46:45.093Z,100.00
2018-12-09T11:49:13.341Z,100.00
2018-12-09T11:51:41.600Z,100.00
2018-12-09T11:54:09.856Z,100.00
2018-12-09T11:56:38.188Z,100.00
2018-12-09T11:59:06.563Z,100.00
2018-12-09T12:01:34.831Z,100.00
2018-12-09T12:04:03.089Z,100.00
2018-12-09T12:06:31.400Z,100.00
2018-12-09T12:08:59.644Z,100.00
2018-12-09T12:11:27.914Z,100.00
2018-12-09T12:13:56.161Z,100.00
2018-12-09T12:16:24.400Z,100.00
2018-12-09T12:18:52.679Z,100.00
2018-12-09T12:21:20.952Z,100.00
2018-12-09T12:23:49.236Z,100.00
2018-12-09T12:26:17.549Z,100.00
2018-12-09T12:28:45.788Z,100.00
2018-12-09T12:31:14.054Z,100.00
2018-12-09T12:33:42.352Z,100.00
2018-12-09T12:36:10.691Z,100.00
2018-12-09T12:38:38.992Z,100.00
2018-12-09T12:41:07.260Z,100.00
2018-12-09T12:43:35.513Z,100.00
2018-12-09T12:46:03.820Z,100.00
2018-12-09T12:48:32.146Z,100.00
2018-12-09T12:51:00.485Z,100.00
2018-12-09T12:53:28.751Z,100.00
2018-12-09T12:55:57.001Z,100.00
2018-12-09T12:58:25.250Z,100.00
2018-12-09T13:00:53.580Z,100.00
2018-12-09T13:03:21.835Z,100.00
2018-12-09T13:05:50.273Z,100.00
2018-12-09T13:08:18.584Z,100.00
2018-12-09T13:10:46.829Z,100.00
2018-12-09T13:13:16.233Z,100.00
2018-12-09T13:15:44.472Z,100.00
2018-12-09T13:18:12.742Z,100.00
2018-12-09T13:20:40.984Z,100.00
2018-12-09T13:23:09.249Z,100.00
2018-12-09T13:25:37.643Z,100.00
2018-12-09T13:28:05.902Z,100.00
2018-12-09T13:30:34.240Z,100.00
2018-12-09T13:33:02.502Z,100.00
2018-12-09T13:35:30.760Z,100.00
2018-12-09T13:37:59.020Z,100.00
2018-12-09T13:40:27.325Z,100.00
2018-12-09T13:42:55.582Z,100.00
2018-12-09T13:45:23.830Z,100.00
2018-12-09T13:47:52.355Z,100.00
2018-12-09T13:50:20.676Z,100.00
2018-12-09T13:52:48.909Z,100.00
2018-12-09T13:55:17.165Z,100.00
2018-12-09T13:57:45.417Z,100.00
2018-12-09T14:03:03.210Z,100.00
2018-12-09T14:05:31.510Z,100.00
2018-12-09T14:07:59.768Z,100.00
2018-12-09T14:10:28.080Z,100.00
2018-12-09T14:12:56.392Z,100.00
2018-12-09T14:15:24.697Z,100.00
2018-12-09T14:17:53.063Z,100.00
2018-12-09T14:20:21.302Z,100.00
2018-12-09T14:22:49.653Z,100.00
2018-12-09T14:25:17.925Z,100.00
2018-12-09T14:27:46.179Z,100.00
2018-12-09T14:30:14.709Z,100.00
2018-12-09T14:32:42.971Z,100.00
2018-12-09T14:35:11.224Z,100.00
2018-12-09T14:37:39.505Z,100.00
2018-12-09T14:40:08.672Z,100.00
2018-12-09T14:42:36.968Z,100.00
2018-12-09T14:45:06.916Z,100.00
2018-12-09T14:47:35.180Z,100.00
2018-12-09T14:50:03.532Z,100.00
2018-12-09T14:52:31.784Z,100.00
2018-12-09T14:55:00.215Z,100.00
2018-12-09T14:57:28.452Z,100.00
2018-12-09T14:59:56.709Z,100.00
2018-12-09T15:02:24.965Z,100.00
2018-12-09T15:04:53.210Z,100.00
2018-12-09T15:07:21.489Z,100.00
2018-12-09T15:09:50.020Z,100.00
2018-12-09T15:12:18.496Z,100.00
2018-12-09T15:14:46.932Z,100.00
2018-12-09T15:17:15.245Z,100.00
2018-12-09T15:19:43.482Z,100.00
2018-12-09T15:22:11.749Z,100.00
2018-12-09T15:24:41.615Z,100.00
2018-12-09T15:27:10.227Z,100.00
2018-12-09T15:29:38.560Z,100.00
2018-12-09T15:32:06.829Z,100.00
2018-12-09T15:34:35.092Z,100.00
2018-12-09T15:37:03.405Z,100.00
2018-12-09T15:39:31.655Z,100.00
2018-12-09T15:41:59.934Z,100.00
2018-12-09T15:44:28.191Z,100.00
2018-12-09T15:46:56.433Z,100.00
2018-12-09T15:49:24.700Z,100.00
2018-12-09T15:51:52.955Z,100.00
2018-12-09T15:57:04.084Z,100.00
2018-12-09T15:59:32.568Z,100.00
2018-12-09T16:02:01.026Z,100.00
2018-12-09T16:04:29.304Z,100.00
2018-12-09T16:06:57.586Z,100.00
2018-12-09T16:09:25.861Z,100.00
2018-12-09T16:11:54.121Z,100.00
2018-12-09T16:14:22.376Z,100.00
2018-12-09T16:16:50.660Z,100.00
2018-12-09T16:19:18.910Z,100.00
2018-12-09T16:21:47.166Z,100.00
2018-12-09T16:24:15.435Z,100.00
2018-12-09T16:26:43.695Z,100.00
2018-12-09T16:29:12.144Z,100.00
2018-12-09T16:31:40.434Z,100.00
2018-12-09T16:34:08.704Z,100.00
2018-12-09T16:36:36.977Z,100.00
2018-12-09T16:39:06.844Z,100.00
2018-12-09T16:41:35.129Z,100.00
2018-12-09T16:44:03.623Z,100.00
2018-12-09T16:46:31.897Z,100.00
2018-12-09T16:49:00.239Z,100.00
2018-12-09T16:51:28.493Z,100.00
2018-12-09T16:53:56.767Z,100.00
2018-12-09T16:56:25.012Z,100.00
2018-12-09T16:58:53.268Z,100.00
2018-12-09T17:01:21.650Z,100.00
2018-12-09T17:03:49.915Z,100.00
2018-12-09T17:06:18.180Z,100.00
2018-12-09T17:08:46.512Z,100.00
2018-12-09T17:11:14.823Z,100.00
2018-12-09T17:13:43.073Z,100.00
2018-12-09T17:16:11.348Z,100.00
2018-12-09T17:18:39.650Z,100.00
2018-12-09T17:21:07.910Z,100.00
2018-12-09T17:23:36.399Z,100.00
2018-12-09T17:26:04.705Z,100.00
2018-12-09T17:28:33.061Z,100.00
2018-12-09T17:31:01.383Z,100.00
2018-12-09T17:33:29.645Z,100.00
2018-12-09T17:35:57.922Z,100.00
2018-12-09T17:38:26.169Z,100.00
2018-12-09T17:40:54.428Z,100.00
2018-12-09T17:43:22.704Z,100.00
2018-12-09T17:45:50.980Z,100.00
2018-12-09T17:48:19.402Z,100.00
2018-12-09T17:50:47.747Z,100.00
2018-12-09T17:53:17.158Z,100.00
2018-12-09T17:55:45.480Z,100.00
2018-12-09T17:58:13.772Z,100.00
2018-12-09T18:00:42.045Z,100.00
2018-12-09T18:03:10.382Z,100.00
2018-12-09T18:05:38.743Z,100.00
2018-12-09T18:08:07.227Z,100.00
2018-12-09T18:10:35.875Z,100.00
2018-12-09T18:13:04.424Z,100.00
2018-12-09T18:17:58.472Z,100.00
2018-12-09T18:20:26.898Z,100.00
2018-12-09T18:22:55.823Z,100.00
2018-12-09T18:27:53.572Z,99.46
2018-12-09T18:30:22.786Z,98.30
2018-12-09T18:32:52.956Z,98.16
2018-12-09T18:35:22.153Z,98.17
2018-12-09T18:37:51.331Z,98.64
2018-12-09T18:40:20.585Z,96.98
2018-12-09T18:42:50.384Z,96.71
2018-12-09T18:45:19.827Z,97.04
2018-12-09T18:47:49.104Z,97.14
2018-12-09T18:50:18.346Z,97.50
2018-12-09T18:52:47.575Z,96.88
2018-12-09T18:55:16.826Z,97.99
2018-12-09T18:57:46.224Z,99.59
2018-12-09T19:00:15.640Z,100.00
2018-12-09T19:02:44.872Z,100.00
2018-12-09T19:05:14.232Z,100.00
2018-12-09T19:07:43.505Z,100.00
2018-12-09T19:10:12.608Z,100.00
2018-12-09T19:12:41.523Z,100.00
2018-12-09T19:15:10.789Z,100.00
2018-12-09T19:17:40.109Z,100.00
2018-12-09T19:20:09.466Z,100.00
2018-12-09T19:22:38.804Z,100.00
2018-12-09T19:25:08.127Z,100.00
2018-12-09T19:27:37.384Z,100.00
2018-12-09T19:30:07.351Z,100.00
2018-12-09T19:32:36.679Z,100.00
2018-12-09T19:35:05.955Z,100.00
2018-12-09T19:37:35.158Z,100.00
2018-12-09T19:40:05.896Z,100.00
2018-12-09T19:42:35.261Z,100.00
2018-12-09T19:45:04.530Z,100.00
2018-12-09T19:47:33.773Z,100.00
2018-12-09T19:50:03.177Z,100.00
2018-12-09T19:52:32.422Z,98.38
2018-12-09T19:55:01.616Z,97.06
2018-12-09T19:57:30.966Z,97.89
2018-12-09T20:00:00.228Z,97.18
2018-12-09T20:02:29.463Z,97.84
2018-12-09T20:04:58.766Z,98.65
2018-12-09T20:07:27.960Z,99.54
2018-12-09T20:09:57.442Z,98.54
2018-12-09T20:12:26.665Z,98.69
2018-12-09T20:14:55.873Z,96.95
2018-12-09T20:17:26.150Z,95.95
2018-12-09T20:19:55.427Z,96.98
2018-12-09T20:22:24.667Z,95.87
2018-12-09T20:24:54.076Z,96.48
2018-12-09T20:27:23.244Z,96.85
2018-12-09T20:29:52.626Z,96.06
2018-12-09T20:32:21.937Z,96.30
2018-12-09T20:34:51.149Z,95.18
2018-12-09T20:37:20.437Z,96.99
2018-12-09T20:39:49.769Z,98.95
2018-12-09T20:42:19.043Z,98.98
2018-12-09T20:44:48.441Z,99.15
2018-12-09T20:47:17.651Z,99.62
2018-12-09T20:49:46.894Z,100.00
2018-12-09T20:52:16.201Z,100.00
2018-12-09T20:54:45.371Z,98.98
2018-12-09T20:57:14.730Z,100.00
2018-12-09T20:59:43.965Z,99.49
2018-12-09T21:02:13.303Z,98.94
2018-12-09T21:04:42.551Z,100.00
2018-12-09T21:07:11.801Z,99.79
2018-12-09T21:09:41.039Z,97.47
2018-12-09T21:12:10.424Z,98.30
2018-12-09T21:14:39.787Z,97.72
2018-12-09T21:17:08.983Z,95.12
2018-12-09T21:19:38.247Z,93.24
2018-12-09T21:22:07.489Z,94.95
2018-12-09T21:24:36.576Z,95.94
2018-12-09T21:27:05.698Z,93.44
2018-12-09T21:29:35.055Z,91.93
2018-12-09T21:32:04.193Z,94.44
2018-12-09T21:34:33.339Z,92.38
2018-12-09T21:37:02.589Z,92.50
2018-12-09T21:39:31.811Z,93.05
2018-12-09T21:42:00.713Z,93.27
2018-12-09T21:44:29.292Z,88.85
2018-12-09T21:46:57.712Z,90.83
2018-12-09T21:49:25.969Z,92.42
2018-12-09T21:51:54.222Z,90.69
2018-12-09T21:54:22.503Z,89.72
2018-12-09T21:56:50.737Z,90.71
2018-12-09T21:59:19.057Z,89.11
2018-12-09T22:01:47.465Z,88.47
2018-12-09T22:04:15.792Z,88.57
2018-12-09T22:06:44.051Z,89.79
2018-12-09T22:09:12.291Z,89.56
2018-12-09T22:11:40.559Z,86.89
2018-12-09T22:14:08.876Z,88.04
2018-12-09T22:16:37.213Z,89.83
2018-12-09T22:19:05.617Z,89.92
2018-12-09T22:21:33.947Z,89.32
2018-12-09T22:24:02.279Z,89.15
2018-12-09T22:26:30.708Z,88.95
2018-12-09T22:28:59.013Z,89.68
2018-12-09T22:31:27.341Z,89.95
2018-12-09T22:33:55.677Z,89.98
2018-12-09T22:36:24.480Z,88.38
2018-12-09T22:38:52.817Z,89.72
2018-12-09T22:41:21.210Z,89.89
2018-12-09T22:43:49.641Z,89.82
2018-12-09T22:46:17.981Z,90.26
2018-12-09T22:48:46.295Z,90.78
2018-12-09T22:51:14.755Z,90.40
2018-12-09T22:53:43.186Z,91.53
2018-12-09T22:56:11.523Z,88.36
2018-12-09T22:58:39.788Z,88.94
2018-12-09T23:01:20.022Z,87.55
2018-12-09T23:03:48.267Z,88.60
2018-12-09T23:06:16.560Z,89.27
2018-12-09T23:08:44.829Z,89.88
2018-12-09T23:11:13.075Z,88.35
2018-12-09T23:13:41.380Z,88.00
2018-12-09T23:16:09.643Z,87.08
2018-12-09T23:18:37.941Z,87.95
2018-12-09T23:21:06.190Z,87.81
2018-12-09T23:23:34.459Z,89.16
2018-12-09T23:26:02.696Z,90.32
2018-12-09T23:28:30.948Z,91.34
2018-12-09T23:30:59.201Z,91.49
2018-12-09T23:33:27.454Z,91.93
2018-12-09T23:35:55.723Z,93.37
2018-12-09T23:38:24.121Z,93.72
2018-12-09T23:40:52.391Z,93.93
2018-12-09T23:43:20.642Z,96.97
2018-12-09T23:45:48.892Z,96.02
2018-12-09T23:48:18.148Z,97.13
2018-12-09T23:50:46.384Z,98.68
2018-12-09T23:53:14.651Z,99.08
2018-12-09T23:55:42.900Z,98.75
2018-12-09T23:58:11.140Z,99.15
